createdAt,value
2022-08-19T00:00:43.389Z,35.93
2022-08-19T00:01:43.277Z,35.45
2022-08-19T00:02:50.082Z,36.25
2022-08-19T00:03:44.264Z,36.42
2022-08-19T00:04:43.300Z,34.80
2022-08-19T00:05:43.317Z,35.45
2022-08-19T00:06:43.260Z,36.25
2022-08-19T00:07:43.261Z,36.09
2022-08-19T00:08:43.228Z,35.45
2022-08-19T00:09:43.243Z,36.09
2022-08-19T00:10:43.278Z,35.93
2022-08-19T00:11:43.207Z,36.42
2022-08-19T00:12:55.624Z,37.22
2022-08-19T00:13:44.197Z,35.93
2022-08-19T00:14:43.189Z,35.77
2022-08-19T00:15:43.187Z,35.77
2022-08-19T00:16:43.207Z,36.74
2022-08-19T00:17:43.180Z,35.29
2022-08-19T00:18:43.180Z,34.64
2022-08-19T00:19:43.162Z,35.61
2022-08-19T00:20:43.148Z,35.61
2022-08-19T00:21:43.195Z,36.42
2022-08-19T00:22:43.144Z,36.58
2022-08-19T00:23:43.985Z,36.58
2022-08-19T00:24:43.141Z,36.74
2022-08-19T00:25:44.112Z,36.58
2022-08-19T00:26:44.551Z,35.61
2022-08-19T00:27:43.129Z,36.09
2022-08-19T00:28:43.084Z,36.09
2022-08-19T00:29:43.095Z,36.42
2022-08-19T00:30:43.098Z,36.42
2022-08-19T00:31:43.064Z,36.09
2022-08-19T00:32:43.103Z,36.42
2022-08-19T00:33:43.046Z,35.61
2022-08-19T00:34:43.040Z,35.93
2022-08-19T00:35:43.034Z,37.06
2022-08-19T00:36:43.032Z,36.25
2022-08-19T00:37:43.349Z,34.97
2022-08-19T00:38:44.002Z,35.45
2022-08-19T00:39:43.087Z,36.58
2022-08-19T00:40:42.999Z,35.93
2022-08-19T00:41:42.996Z,35.29
2022-08-19T00:42:42.975Z,36.25
2022-08-19T00:43:43.008Z,37.54
2022-08-19T00:44:42.967Z,35.77
2022-08-19T00:45:42.976Z,35.13
2022-08-19T00:46:42.943Z,36.42
2022-08-19T00:47:42.948Z,36.25
2022-08-19T00:48:43.673Z,36.58
2022-08-19T00:49:42.959Z,36.58
2022-08-19T00:50:51.477Z,36.09
2022-08-19T00:51:43.904Z,36.25
2022-08-19T00:52:42.904Z,35.93
2022-08-19T00:53:42.905Z,35.93
2022-08-19T00:54:42.941Z,36.09
2022-08-19T00:55:43.412Z,36.25
2022-08-19T00:56:42.881Z,36.58
2022-08-19T00:57:42.880Z,35.93
2022-08-19T00:58:42.864Z,35.61
2022-08-19T01:00:00.781Z,35.45
2022-08-19T01:00:43.855Z,36.09
2022-08-19T01:01:42.881Z,35.93
2022-08-19T01:02:42.847Z,36.42
2022-08-19T01:03:57.911Z,36.74
2022-08-19T01:04:43.878Z,36.09
2022-08-19T01:05:42.825Z,35.77
2022-08-19T01:06:42.804Z,36.25
2022-08-19T01:07:42.798Z,35.61
2022-08-19T01:08:42.792Z,35.93
2022-08-19T01:09:42.848Z,35.77
2022-08-19T01:10:42.820Z,37.06
2022-08-19T01:11:42.789Z,36.42
2022-08-19T01:12:42.772Z,35.29
2022-08-19T01:13:49.291Z,35.93
2022-08-19T01:14:43.775Z,35.45
2022-08-19T01:15:42.749Z,34.97
2022-08-19T01:16:42.735Z,35.61
2022-08-19T01:17:42.727Z,35.13
2022-08-19T01:18:42.726Z,35.45
2022-08-19T01:19:43.446Z,36.42
2022-08-19T01:20:42.730Z,35.13
2022-08-19T01:21:42.715Z,36.25
2022-08-19T01:22:42.697Z,35.93
2022-08-19T01:23:42.689Z,36.09
2022-08-19T01:24:49.609Z,35.29
2022-08-19T01:25:43.700Z,35.93
2022-08-19T01:26:42.690Z,35.29
2022-08-19T01:27:43.648Z,36.25
2022-08-19T01:28:42.666Z,35.93
2022-08-19T01:29:42.663Z,34.80
2022-08-19T01:30:44.495Z,35.93
2022-08-19T01:31:43.638Z,36.09
2022-08-19T01:32:42.643Z,34.97
2022-08-19T01:33:42.635Z,34.97
2022-08-19T01:34:42.633Z,35.77
2022-08-19T01:35:42.605Z,36.09
2022-08-19T01:36:42.628Z,35.45
2022-08-19T01:37:42.588Z,36.74
2022-08-19T01:38:44.091Z,36.09
2022-08-19T01:39:42.599Z,35.61
2022-08-19T01:40:42.569Z,36.90
2022-08-19T01:41:42.735Z,35.93
2022-08-19T01:42:42.801Z,36.42
2022-08-19T01:44:10.410Z,35.29
2022-08-19T01:44:43.544Z,34.97
2022-08-19T01:45:42.526Z,36.09
2022-08-19T01:46:42.563Z,35.93
2022-08-19T01:47:43.392Z,36.42
2022-08-19T01:48:43.508Z,36.42
2022-08-19T01:49:42.548Z,34.97
2022-08-19T01:50:42.500Z,36.09
2022-08-19T01:51:42.520Z,35.77
2022-08-19T01:52:42.590Z,35.61
2022-08-19T01:53:42.473Z,36.25
2022-08-19T01:54:42.469Z,36.25
2022-08-19T01:55:42.516Z,36.90
2022-08-19T01:56:42.463Z,36.74
2022-08-19T01:57:42.490Z,36.42
2022-08-19T01:58:42.442Z,36.58
2022-08-19T01:59:42.438Z,35.61
2022-08-19T02:00:42.431Z,35.93
2022-08-19T02:01:42.552Z,36.09
2022-08-19T02:02:44.176Z,35.29
2022-08-19T02:03:42.413Z,36.42
2022-08-19T02:04:42.504Z,35.61
2022-08-19T02:05:42.392Z,36.42
2022-08-19T02:06:42.445Z,34.64
2022-08-19T02:07:42.464Z,36.25
2022-08-19T02:08:42.371Z,35.61
2022-08-19T02:09:42.370Z,36.25
2022-08-19T02:10:42.368Z,36.09
2022-08-19T02:11:42.352Z,36.25
2022-08-19T02:12:42.341Z,36.58
2022-08-19T02:13:42.423Z,36.09
2022-08-19T02:14:42.357Z,37.06
2022-08-19T02:15:42.338Z,36.90
2022-08-19T02:16:42.319Z,36.09
2022-08-19T02:17:42.345Z,35.13
2022-08-19T02:18:42.350Z,35.45
2022-08-19T02:19:42.298Z,36.58
2022-08-19T02:20:42.294Z,35.93
2022-08-19T02:21:42.275Z,35.29
2022-08-19T02:22:42.932Z,35.29
2022-08-19T02:23:42.346Z,36.58
2022-08-19T02:24:42.258Z,36.90
2022-08-19T02:25:42.254Z,36.42
2022-08-19T02:26:42.245Z,35.93
2022-08-19T02:27:42.254Z,36.25
2022-08-19T02:28:42.228Z,35.29
2022-08-19T02:29:42.943Z,34.97
2022-08-19T02:30:42.242Z,35.45
2022-08-19T02:31:42.248Z,35.77
2022-08-19T02:32:44.298Z,36.09
2022-08-19T02:33:42.213Z,35.93
2022-08-19T02:34:42.238Z,34.97
2022-08-19T02:35:42.177Z,35.13
2022-08-19T02:36:42.696Z,36.25
2022-08-19T02:37:42.162Z,36.42
2022-08-19T02:38:42.195Z,35.13
2022-08-19T02:39:42.260Z,35.13
2022-08-19T02:40:42.142Z,36.74
2022-08-19T02:41:42.150Z,36.58
2022-08-19T02:42:43.086Z,35.29
2022-08-19T02:44:18.382Z,36.09
2022-08-19T02:44:43.143Z,36.42
2022-08-19T02:45:42.098Z,36.42
2022-08-19T02:46:42.105Z,35.45
2022-08-19T02:47:42.081Z,35.61
2022-08-19T02:48:42.077Z,36.42
2022-08-19T02:49:42.069Z,35.45
2022-08-19T02:50:53.285Z,36.58
2022-08-19T02:51:43.059Z,36.74
2022-08-19T02:52:42.063Z,36.25
2022-08-19T02:53:42.057Z,35.61
2022-08-19T02:54:42.046Z,35.61
2022-08-19T02:55:45.929Z,37.71
2022-08-19T02:56:42.030Z,35.61
2022-08-19T02:57:43.082Z,36.25
2022-08-19T02:58:42.101Z,37.06
2022-08-19T02:59:42.019Z,36.42
2022-08-19T03:00:42.158Z,36.74
2022-08-19T03:01:42.248Z,35.93
2022-08-19T03:02:41.992Z,36.42
2022-08-19T03:03:42.988Z,37.38
2022-08-19T03:04:42.038Z,37.22
2022-08-19T03:05:49.233Z,36.58
2022-08-19T03:06:43.000Z,36.58
2022-08-19T03:07:42.063Z,36.09
2022-08-19T03:08:41.948Z,36.58
2022-08-19T03:09:41.948Z,36.58
2022-08-19T03:10:41.925Z,37.22
2022-08-19T03:11:41.947Z,36.90
2022-08-19T03:12:41.913Z,36.58
2022-08-19T03:13:41.913Z,35.29
2022-08-19T03:14:41.893Z,36.42
2022-08-19T03:15:41.894Z,37.06
2022-08-19T03:16:42.946Z,35.45
2022-08-19T03:17:41.953Z,36.25
2022-08-19T03:18:41.874Z,37.06
2022-08-19T03:19:41.873Z,36.09
2022-08-19T03:20:41.848Z,36.09
2022-08-19T03:21:41.896Z,36.25
2022-08-19T03:22:42.961Z,36.09
2022-08-19T03:23:41.825Z,36.58
2022-08-19T03:24:41.846Z,37.22
2022-08-19T03:25:41.821Z,37.54
2022-08-19T03:26:41.816Z,35.77
2022-08-19T03:27:41.841Z,34.97
2022-08-19T03:28:41.817Z,37.38
2022-08-19T03:29:43.898Z,36.58
2022-08-19T03:30:41.844Z,36.42
2022-08-19T03:31:50.963Z,36.58
2022-08-19T03:32:45.410Z,35.61
2022-08-19T03:33:41.765Z,36.09
2022-08-19T03:34:41.769Z,36.90
2022-08-19T03:35:41.753Z,36.09
2022-08-19T03:36:41.748Z,36.42
2022-08-19T03:37:42.220Z,35.29
2022-08-19T03:38:41.945Z,36.90
2022-08-19T03:39:42.481Z,35.93
2022-08-19T03:40:41.744Z,36.42
2022-08-19T03:41:44.814Z,36.25
2022-08-19T03:42:49.051Z,36.90
2022-08-19T03:43:42.699Z,36.58
2022-08-19T03:44:41.905Z,36.25
2022-08-19T03:45:41.693Z,36.42
2022-08-19T03:46:42.387Z,35.61
2022-08-19T03:47:41.705Z,35.13
2022-08-19T03:48:43.404Z,36.58
2022-08-19T03:49:41.646Z,35.13
2022-08-19T03:50:41.638Z,37.22
2022-08-19T03:51:41.646Z,37.06
2022-08-19T03:52:50.279Z,37.06
2022-08-19T03:53:42.655Z,36.58
2022-08-19T03:54:41.698Z,37.38
2022-08-19T03:55:41.645Z,37.38
2022-08-19T03:56:41.629Z,37.71
2022-08-19T03:57:41.601Z,37.54
2022-08-19T03:58:41.623Z,36.58
2022-08-19T03:59:41.576Z,36.90
2022-08-19T04:00:41.568Z,36.25
2022-08-19T04:01:41.683Z,37.54
2022-08-19T04:02:42.464Z,37.87
2022-08-19T04:03:41.626Z,36.25
2022-08-19T04:04:41.550Z,36.74
2022-08-19T04:05:41.540Z,36.58
2022-08-19T04:06:41.548Z,36.58
2022-08-19T04:07:41.579Z,35.77
2022-08-19T04:08:41.519Z,36.09
2022-08-19T04:09:41.535Z,37.06
2022-08-19T04:10:41.501Z,37.22
2022-08-19T04:11:43.411Z,37.38
2022-08-19T04:12:41.492Z,37.06
2022-08-19T04:13:41.470Z,38.67
2022-08-19T04:14:41.824Z,36.25
2022-08-19T04:15:42.495Z,37.87
2022-08-19T04:16:41.449Z,38.67
2022-08-19T04:17:41.441Z,37.87
2022-08-19T04:18:41.446Z,37.38
2022-08-19T04:19:41.453Z,37.87
2022-08-19T04:20:41.437Z,37.87
2022-08-19T04:21:41.456Z,38.67
2022-08-19T04:22:41.406Z,38.35
2022-08-19T04:23:45.601Z,39.32
2022-08-19T04:24:41.418Z,37.38
2022-08-19T04:25:41.397Z,37.38
2022-08-19T04:26:41.409Z,37.71
2022-08-19T04:27:41.376Z,38.19
2022-08-19T04:28:41.375Z,37.38
2022-08-19T04:29:41.527Z,38.67
2022-08-19T04:30:41.634Z,38.35
2022-08-19T04:31:41.345Z,37.06
2022-08-19T04:32:41.338Z,37.38
2022-08-19T04:33:41.355Z,38.67
2022-08-19T04:35:01.168Z,38.67
2022-08-19T04:35:42.335Z,37.87
2022-08-19T04:36:41.333Z,40.93
2022-08-19T04:37:41.305Z,39.48
2022-08-19T04:38:41.330Z,36.90
2022-08-19T04:39:41.513Z,37.38
2022-08-19T04:40:41.285Z,39.16
2022-08-19T04:41:41.286Z,37.22
2022-08-19T04:42:41.264Z,39.16
2022-08-19T04:43:41.266Z,37.22
2022-08-19T04:44:46.439Z,38.19
2022-08-19T04:45:43.973Z,38.99
2022-08-19T04:46:51.577Z,39.16
2022-08-19T04:47:48.241Z,39.48
2022-08-19T04:48:49.226Z,37.06
2022-08-19T04:49:42.259Z,40.12
2022-08-19T04:50:41.208Z,38.19
2022-08-19T04:51:41.210Z,37.54
2022-08-19T04:52:41.210Z,37.71
2022-08-19T04:53:41.393Z,37.54
2022-08-19T04:54:41.896Z,39.16
2022-08-19T04:55:41.180Z,37.87
2022-08-19T04:56:41.210Z,38.19
2022-08-19T04:57:41.259Z,38.51
2022-08-19T04:58:41.168Z,36.90
2022-08-19T04:59:41.202Z,36.74
2022-08-19T05:00:41.268Z,38.99
2022-08-19T05:01:41.143Z,36.74
2022-08-19T05:02:41.137Z,37.06
2022-08-19T05:03:41.124Z,36.74
2022-08-19T05:04:41.282Z,37.06
2022-08-19T05:05:45.327Z,38.03
2022-08-19T05:06:41.110Z,36.42
2022-08-19T05:07:41.100Z,35.61
2022-08-19T05:08:41.100Z,38.03
2022-08-19T05:09:58.966Z,36.25
2022-08-19T05:10:42.965Z,36.74
2022-08-19T05:11:41.074Z,37.38
2022-08-19T05:12:41.101Z,38.99
2022-08-19T05:13:41.066Z,39.48
2022-08-19T05:14:41.063Z,38.19
2022-08-19T05:15:41.589Z,36.42
2022-08-19T05:16:41.032Z,35.93
2022-08-19T05:17:41.118Z,37.54
2022-08-19T05:18:41.025Z,37.71
2022-08-19T05:19:42.017Z,37.38
2022-08-19T05:20:41.038Z,37.87
2022-08-19T05:21:41.099Z,38.35
2022-08-19T05:22:43.838Z,41.25
2022-08-19T05:23:40.992Z,38.19
2022-08-19T05:24:56.388Z,37.38
2022-08-19T05:25:43.003Z,36.90
2022-08-19T05:26:42.836Z,37.22
2022-08-19T05:27:43.475Z,37.38
2022-08-19T05:28:40.958Z,36.74
2022-08-19T05:29:41.010Z,36.74
2022-08-19T05:30:47.423Z,36.42
2022-08-19T05:31:42.869Z,38.35
2022-08-19T05:32:40.984Z,36.90
2022-08-19T05:33:41.941Z,37.54
2022-08-19T05:34:40.913Z,38.19
2022-08-19T05:35:40.936Z,37.06
2022-08-19T05:36:41.898Z,37.22
2022-08-19T05:37:41.861Z,36.74
2022-08-19T05:38:40.904Z,38.35
2022-08-19T05:39:41.615Z,36.74
2022-08-19T05:40:41.064Z,37.22
2022-08-19T05:41:40.882Z,37.54
2022-08-19T05:42:40.859Z,37.38
2022-08-19T05:43:40.857Z,36.09
2022-08-19T05:44:40.865Z,36.90
2022-08-19T05:45:41.001Z,36.90
2022-08-19T05:46:40.833Z,37.06
2022-08-19T05:47:42.318Z,37.06
2022-08-19T05:48:40.814Z,37.38
2022-08-19T05:49:40.847Z,37.06
2022-08-19T05:50:40.894Z,39.16
2022-08-19T05:51:40.832Z,37.38
2022-08-19T05:52:43.814Z,35.61
2022-08-19T05:53:41.794Z,36.09
2022-08-19T05:54:40.818Z,37.38
2022-08-19T05:55:40.805Z,37.71
2022-08-19T05:56:40.766Z,38.51
2022-08-19T05:57:40.772Z,35.77
2022-08-19T05:58:40.824Z,36.90
2022-08-19T05:59:40.733Z,37.06
2022-08-19T06:00:40.731Z,38.19
2022-08-19T06:01:40.890Z,38.35
2022-08-19T06:02:40.743Z,38.35
2022-08-19T06:03:40.790Z,37.38
2022-08-19T06:04:40.759Z,37.22
2022-08-19T06:05:42.258Z,36.90
2022-08-19T06:06:41.715Z,37.71
2022-08-19T06:07:40.695Z,37.22
2022-08-19T06:08:40.673Z,36.58
2022-08-19T06:09:40.666Z,37.87
2022-08-19T06:10:40.681Z,37.06
2022-08-19T06:11:40.696Z,36.74
2022-08-19T06:12:40.646Z,36.58
2022-08-19T06:13:40.642Z,37.87
2022-08-19T06:14:41.928Z,37.06
2022-08-19T06:15:40.626Z,37.38
2022-08-19T06:16:40.666Z,35.61
2022-08-19T06:17:40.609Z,34.32
2022-08-19T06:18:40.617Z,34.32
2022-08-19T06:19:41.190Z,35.61
2022-08-19T06:20:55.435Z,35.45
2022-08-19T06:21:42.645Z,35.29
2022-08-19T06:22:40.597Z,34.48
2022-08-19T06:23:40.574Z,35.29
2022-08-19T06:24:40.558Z,34.48
2022-08-19T06:25:40.555Z,34.00
2022-08-19T06:26:40.605Z,34.80
2022-08-19T06:27:53.392Z,36.42
2022-08-19T06:28:42.539Z,36.90
2022-08-19T06:29:40.532Z,36.58
2022-08-19T06:30:40.524Z,35.13
2022-08-19T06:31:40.507Z,36.25
2022-08-19T06:32:42.924Z,36.09
2022-08-19T06:33:41.500Z,35.45
2022-08-19T06:34:40.501Z,35.93
2022-08-19T06:35:40.551Z,36.09
2022-08-19T06:36:40.480Z,37.38
2022-08-19T06:37:43.713Z,35.29
2022-08-19T06:38:41.473Z,33.84
2022-08-19T06:39:40.520Z,34.32
2022-08-19T06:40:40.533Z,34.97
2022-08-19T06:41:47.186Z,34.00
2022-08-19T06:42:50.214Z,34.48
2022-08-19T06:43:42.298Z,34.48
2022-08-19T06:44:42.543Z,35.29
2022-08-19T06:45:40.422Z,34.80
2022-08-19T06:46:40.416Z,34.16
2022-08-19T06:47:40.428Z,33.52
2022-08-19T06:48:45.149Z,34.64
2022-08-19T06:49:41.424Z,34.48
2022-08-19T06:50:40.986Z,35.45
2022-08-19T06:51:42.532Z,34.64
2022-08-19T06:52:40.400Z,33.35
2022-08-19T06:53:40.513Z,34.48
2022-08-19T06:54:55.336Z,34.32
2022-08-19T06:55:41.350Z,32.87
2022-08-19T06:56:40.354Z,33.84
2022-08-19T06:57:40.362Z,34.16
2022-08-19T06:58:40.362Z,34.48
2022-08-19T06:59:40.334Z,36.42
2022-08-19T07:00:40.316Z,33.68
2022-08-19T07:01:40.323Z,33.84
2022-08-19T07:02:40.328Z,34.97
2022-08-19T07:03:40.317Z,37.22
2022-08-19T07:04:42.586Z,34.64
2022-08-19T07:05:40.283Z,34.32
2022-08-19T07:06:43.904Z,34.97
2022-08-19T07:07:41.310Z,34.80
2022-08-19T07:09:40.259Z,34.48
2022-08-19T07:10:42.804Z,36.09
2022-08-19T07:11:40.248Z,35.77
2022-08-19T07:12:40.254Z,34.48
2022-08-19T07:13:40.257Z,33.35
2022-08-19T07:14:40.224Z,33.52
2022-08-19T07:15:40.208Z,34.16
2022-08-19T07:16:43.010Z,34.48
2022-08-19T07:17:42.104Z,36.74
2022-08-19T07:18:40.217Z,33.84
2022-08-19T07:19:40.188Z,33.52
2022-08-19T07:20:40.268Z,34.97
2022-08-19T07:21:40.168Z,34.97
2022-08-19T07:22:40.163Z,34.97
2022-08-19T07:23:40.188Z,35.61
2022-08-19T07:24:40.150Z,34.48
2022-08-19T07:25:41.223Z,35.61
2022-08-19T07:26:40.135Z,35.77
2022-08-19T07:27:40.136Z,34.32
2022-08-19T07:28:40.165Z,34.32
2022-08-19T07:29:41.117Z,33.68
2022-08-19T07:30:40.112Z,34.00
2022-08-19T07:31:40.107Z,34.80
2022-08-19T07:32:40.094Z,33.35
2022-08-19T07:33:40.123Z,34.32
2022-08-19T07:34:40.127Z,35.61
2022-08-19T07:35:40.078Z,35.93
2022-08-19T07:36:40.082Z,33.52
2022-08-19T07:37:40.071Z,34.16
2022-08-19T07:38:40.060Z,32.39
2022-08-19T07:39:40.120Z,32.71
2022-08-19T07:40:40.049Z,33.35
2022-08-19T07:41:40.054Z,35.13
2022-08-19T07:42:40.028Z,36.42
2022-08-19T07:43:40.037Z,34.16
2022-08-19T07:45:40.016Z,35.61
2022-08-19T07:46:40.011Z,34.64
2022-08-19T07:47:48.936Z,32.71
2022-08-19T07:48:41.001Z,32.39
2022-08-19T07:49:40.024Z,32.55
2022-08-19T07:50:40.002Z,32.71
2022-08-19T07:51:39.969Z,32.55
2022-08-19T07:52:39.967Z,32.55
2022-08-19T07:53:40.080Z,33.52
2022-08-19T07:54:39.964Z,32.71
2022-08-19T07:55:43.547Z,32.87
2022-08-19T07:56:39.928Z,33.68
2022-08-19T07:57:39.961Z,32.87
2022-08-19T07:58:39.921Z,33.35
2022-08-19T07:59:39.946Z,32.55
2022-08-19T08:00:39.896Z,32.23
2022-08-19T08:01:41.666Z,32.07
2022-08-19T08:02:39.895Z,34.48
2022-08-19T08:03:39.882Z,31.90
2022-08-19T08:04:39.896Z,33.84
2022-08-19T08:05:43.398Z,33.68
2022-08-19T08:06:40.861Z,32.71
2022-08-19T08:07:39.852Z,33.03
2022-08-19T08:08:44.195Z,35.29
2022-08-19T08:09:40.882Z,35.45
2022-08-19T08:10:39.824Z,33.52
2022-08-19T08:11:39.824Z,34.32
2022-08-19T08:12:39.814Z,34.32
2022-08-19T08:13:39.818Z,32.55
2022-08-19T08:14:39.800Z,32.39
2022-08-19T08:15:42.948Z,34.00
2022-08-19T08:16:47.075Z,34.32
2022-08-19T08:17:48.724Z,33.84
2022-08-19T08:18:40.783Z,34.32
2022-08-19T08:19:39.765Z,34.32
2022-08-19T08:20:39.787Z,36.90
2022-08-19T08:22:39.745Z,34.16
2022-08-19T08:23:39.860Z,36.09
2022-08-19T08:24:39.729Z,35.13
2022-08-19T08:25:39.751Z,34.32
2022-08-19T08:26:39.718Z,34.64
2022-08-19T08:27:40.734Z,38.03
2022-08-19T08:28:39.717Z,33.35
2022-08-19T08:29:39.701Z,32.39
2022-08-19T08:30:39.756Z,33.35
2022-08-19T08:31:40.685Z,35.45
2022-08-19T08:32:39.693Z,34.16
2022-08-19T08:33:39.669Z,33.19
2022-08-19T08:34:39.684Z,33.35
2022-08-19T08:35:39.705Z,33.84
2022-08-19T08:36:39.654Z,39.16
2022-08-19T08:37:39.638Z,32.39
2022-08-19T08:38:40.803Z,32.39
2022-08-19T08:39:40.668Z,33.84
2022-08-19T08:40:39.619Z,34.16
2022-08-19T08:41:39.643Z,31.90
2022-08-19T08:42:39.607Z,33.84
2022-08-19T08:43:39.600Z,35.93
2022-08-19T08:44:39.589Z,36.25
2022-08-19T08:45:40.916Z,32.87
2022-08-19T08:46:39.589Z,35.61
2022-08-19T08:47:49.656Z,38.19
2022-08-19T08:48:40.558Z,35.13
2022-08-19T08:49:39.550Z,35.13
2022-08-19T08:50:39.586Z,33.35
2022-08-19T08:52:39.543Z,36.58
2022-08-19T08:53:41.763Z,33.35
2022-08-19T08:54:40.525Z,34.97
2022-08-19T08:55:40.516Z,35.93
2022-08-19T08:56:39.566Z,35.13
2022-08-19T08:57:41.078Z,34.64
2022-08-19T08:58:40.491Z,34.48
2022-08-19T08:59:39.500Z,32.87
2022-08-19T09:00:39.495Z,32.71
2022-08-19T09:01:39.506Z,31.58
2022-08-19T09:02:39.487Z,34.00
2022-08-19T09:03:39.453Z,35.61
2022-08-19T09:04:39.448Z,33.84
2022-08-19T09:05:41.533Z,33.68
2022-08-19T09:06:40.810Z,32.87
2022-08-19T09:07:39.937Z,35.77
2022-08-19T09:08:40.427Z,36.25
2022-08-19T09:09:39.422Z,36.42
2022-08-19T09:10:44.441Z,36.25
2022-08-19T09:11:42.145Z,34.16
2022-08-19T09:12:40.414Z,37.71
2022-08-19T09:13:39.393Z,32.23
2022-08-19T09:14:50.197Z,36.74
2022-08-19T09:15:41.390Z,35.13
2022-08-19T09:16:39.372Z,36.42
2022-08-19T09:17:39.406Z,32.71
2022-08-19T09:18:39.355Z,34.80
2022-08-19T09:19:39.387Z,36.58
2022-08-19T09:20:42.570Z,32.23
2022-08-19T09:21:39.339Z,34.64
2022-08-19T09:22:39.372Z,33.19
2022-08-19T09:23:39.327Z,32.71
2022-08-19T09:24:39.310Z,34.00
2022-08-19T09:25:39.311Z,35.61
2022-08-19T09:26:48.609Z,34.00
2022-08-19T09:27:42.731Z,34.00
2022-08-19T09:28:39.294Z,33.52
2022-08-19T09:29:39.288Z,29.49
2022-08-19T09:30:39.282Z,30.62
2022-08-19T09:31:39.296Z,35.93
2022-08-19T09:32:39.261Z,31.90
2022-08-19T09:33:39.272Z,32.23
2022-08-19T09:34:39.252Z,33.03
2022-08-19T09:35:49.942Z,34.80
2022-08-19T09:36:40.238Z,34.64
2022-08-19T09:37:39.241Z,36.25
2022-08-19T09:38:43.575Z,32.23
2022-08-19T09:39:39.250Z,34.48
2022-08-19T09:40:39.211Z,32.23
2022-08-19T09:41:39.194Z,35.13
2022-08-19T09:42:50.158Z,36.74
2022-08-19T09:43:44.170Z,33.52
2022-08-19T09:44:39.199Z,38.35
2022-08-19T09:45:40.195Z,34.80
2022-08-19T09:46:39.168Z,34.64
2022-08-19T09:47:40.613Z,34.97
2022-08-19T09:48:39.190Z,31.74
2022-08-19T09:49:39.167Z,30.78
2022-08-19T09:50:39.140Z,33.84
2022-08-19T09:51:40.130Z,33.52
2022-08-19T09:52:39.149Z,35.61
2022-08-19T09:53:40.173Z,35.61
2022-08-19T09:54:39.122Z,33.52
2022-08-19T09:55:40.120Z,31.74
2022-08-19T09:56:39.101Z,33.84
2022-08-19T09:57:39.103Z,32.71
2022-08-19T09:58:39.090Z,34.16
2022-08-19T09:59:39.122Z,32.07
2022-08-19T10:00:39.083Z,32.71
2022-08-19T10:01:39.121Z,32.39
2022-08-19T10:02:39.069Z,31.74
2022-08-19T10:03:39.060Z,34.64
2022-08-19T10:04:39.084Z,32.87
2022-08-19T10:05:39.045Z,34.00
2022-08-19T10:06:46.232Z,32.07
2022-08-19T10:07:40.032Z,33.84
2022-08-19T10:08:39.033Z,33.03
2022-08-19T10:09:40.043Z,36.74
2022-08-19T10:10:39.038Z,36.09
2022-08-19T10:11:40.004Z,33.84
2022-08-19T10:12:39.002Z,34.00
2022-08-19T10:13:39.021Z,34.64
2022-08-19T10:14:39.285Z,32.23
2022-08-19T10:15:47.101Z,29.97
2022-08-19T10:16:39.998Z,29.49
2022-08-19T10:17:38.964Z,35.45
2022-08-19T10:18:38.960Z,34.32
2022-08-19T10:19:41.004Z,36.90
2022-08-19T10:20:39.942Z,29.81
2022-08-19T10:21:38.944Z,29.00
2022-08-19T10:22:38.928Z,31.42
2022-08-19T10:23:38.928Z,30.78
2022-08-19T10:24:38.940Z,32.55
2022-08-19T10:25:38.963Z,31.90
2022-08-19T10:26:38.964Z,29.97
2022-08-19T10:27:38.907Z,33.03
2022-08-19T10:28:39.060Z,29.17
2022-08-19T10:29:38.935Z,33.03
2022-08-19T10:30:39.909Z,29.17
2022-08-19T10:32:00.594Z,30.13
2022-08-19T10:32:39.898Z,29.33
2022-08-19T10:33:53.383Z,33.19
2022-08-19T10:34:48.137Z,32.39
2022-08-19T10:35:42.772Z,33.03
2022-08-19T10:36:39.867Z,31.42
2022-08-19T10:37:49.841Z,26.26
2022-08-19T10:38:39.877Z,30.45
2022-08-19T10:39:41.003Z,27.55
2022-08-19T10:40:38.859Z,28.84
2022-08-19T10:41:38.830Z,28.36
2022-08-19T10:42:38.820Z,30.29
2022-08-19T10:43:38.817Z,30.45
2022-08-19T10:44:38.810Z,32.87
2022-08-19T10:45:38.818Z,27.88
2022-08-19T10:46:39.812Z,30.62
2022-08-19T10:47:38.799Z,30.45
2022-08-19T10:48:38.789Z,34.16
2022-08-19T10:49:38.775Z,34.16
2022-08-19T10:50:39.796Z,34.00
2022-08-19T10:51:46.494Z,32.55
2022-08-19T10:52:39.763Z,32.55
2022-08-19T10:53:39.756Z,37.54
2022-08-19T10:54:38.773Z,32.39
2022-08-19T10:55:38.869Z,28.84
2022-08-19T10:56:38.730Z,34.97
2022-08-19T10:58:01.803Z,32.07
2022-08-19T10:58:40.737Z,31.42
2022-08-19T10:59:38.720Z,31.90
2022-08-19T11:00:38.756Z,31.58
2022-08-19T11:01:38.716Z,30.78
2022-08-19T11:02:38.701Z,31.90
2022-08-19T11:03:38.706Z,32.39
2022-08-19T11:04:38.686Z,31.26
2022-08-19T11:05:39.860Z,30.45
2022-08-19T11:06:38.754Z,31.26
2022-08-19T11:07:38.675Z,29.33
2022-08-19T11:08:38.797Z,31.42
2022-08-19T11:09:38.672Z,27.39
2022-08-19T11:10:38.654Z,28.36
2022-08-19T11:11:38.662Z,32.23
2022-08-19T11:12:38.644Z,31.90
2022-08-19T11:13:38.631Z,29.97
2022-08-19T11:14:38.631Z,34.48
2022-08-19T11:15:38.649Z,29.33
2022-08-19T11:16:38.631Z,27.71
2022-08-19T11:17:38.608Z,27.23
2022-08-19T11:18:38.614Z,31.58
2022-08-19T11:19:38.602Z,29.17
2022-08-19T11:20:38.588Z,29.17
2022-08-19T11:21:38.646Z,33.35
2022-08-19T11:22:41.477Z,30.13
2022-08-19T11:23:39.570Z,30.78
2022-08-19T11:24:38.590Z,33.03
2022-08-19T11:25:38.546Z,34.16
2022-08-19T11:26:38.581Z,31.58
2022-08-19T11:27:38.532Z,31.58
2022-08-19T11:28:38.530Z,31.26
2022-08-19T11:29:38.523Z,29.97
2022-08-19T11:30:38.511Z,32.55
2022-08-19T11:31:38.577Z,28.68
2022-08-19T11:32:38.500Z,28.52
2022-08-19T11:33:38.498Z,31.58
2022-08-19T11:34:38.491Z,31.42
2022-08-19T11:35:38.505Z,32.39
2022-08-19T11:36:38.508Z,33.84
2022-08-19T11:37:38.464Z,34.32
2022-08-19T11:38:38.488Z,33.68
2022-08-19T11:39:38.488Z,31.90
2022-08-19T11:40:38.468Z,32.55
2022-08-19T11:41:38.482Z,32.07
2022-08-19T11:42:38.444Z,33.35
2022-08-19T11:43:38.490Z,32.39
2022-08-19T11:44:38.416Z,35.13
2022-08-19T11:45:38.407Z,34.97
2022-08-19T11:46:38.431Z,31.74
2022-08-19T11:47:38.425Z,31.58
2022-08-19T11:48:38.394Z,30.45
2022-08-19T11:49:38.403Z,32.39
2022-08-19T11:50:38.377Z,28.68
2022-08-19T11:51:38.370Z,31.90
2022-08-19T11:52:38.425Z,31.26
2022-08-19T11:53:38.357Z,31.42
2022-08-19T11:54:38.426Z,28.36
2022-08-19T11:55:38.352Z,34.00
2022-08-19T11:56:39.336Z,26.91
2022-08-19T11:57:38.381Z,31.58
2022-08-19T11:58:38.325Z,30.94
2022-08-19T11:59:38.325Z,32.23
2022-08-19T12:00:38.309Z,30.62
2022-08-19T12:01:38.306Z,34.80
2022-08-19T12:02:38.313Z,32.07
2022-08-19T12:03:38.346Z,35.61
2022-08-19T12:04:38.296Z,36.42
2022-08-19T12:05:38.298Z,31.90
2022-08-19T12:06:38.277Z,32.71
2022-08-19T12:07:38.287Z,33.19
2022-08-19T12:08:38.275Z,33.52
2022-08-19T12:09:38.262Z,34.80
2022-08-19T12:10:38.240Z,32.55
2022-08-19T12:11:38.223Z,34.80
2022-08-19T12:12:39.233Z,35.29
2022-08-19T12:13:38.259Z,33.19
2022-08-19T12:14:38.227Z,34.00
2022-08-19T12:15:38.225Z,34.00
2022-08-19T12:16:44.737Z,34.16
2022-08-19T12:17:40.211Z,34.80
2022-08-19T12:18:38.252Z,29.81
2022-08-19T12:19:38.203Z,34.16
2022-08-19T12:20:38.197Z,33.03
2022-08-19T12:21:38.198Z,36.09
2022-08-19T12:22:38.173Z,36.42
2022-08-19T12:23:38.174Z,32.71
2022-08-19T12:24:38.202Z,36.09
2022-08-19T12:25:38.159Z,31.26
2022-08-19T12:26:53.383Z,31.74
2022-08-19T12:27:40.344Z,30.62
2022-08-19T12:28:38.147Z,33.19
2022-08-19T12:29:38.180Z,29.81
2022-08-19T12:30:38.141Z,31.74
2022-08-19T12:31:38.129Z,31.58
2022-08-19T12:32:38.127Z,32.23
2022-08-19T12:33:38.132Z,30.13
2022-08-19T12:34:38.151Z,34.00
2022-08-19T12:35:38.109Z,35.29
2022-08-19T12:36:38.114Z,33.68
2022-08-19T12:37:38.103Z,35.13
2022-08-19T12:38:38.098Z,28.52
2022-08-19T12:39:38.151Z,30.62
2022-08-19T12:40:38.084Z,27.71
2022-08-19T12:41:38.082Z,27.71
2022-08-19T12:42:39.081Z,26.91
2022-08-19T12:43:38.096Z,29.33
2022-08-19T12:44:38.088Z,26.91
2022-08-19T12:45:38.056Z,26.91
2022-08-19T12:46:38.055Z,30.45
2022-08-19T12:47:38.049Z,28.20
2022-08-19T12:48:38.043Z,29.81
2022-08-19T12:49:54.353Z,28.52
2022-08-19T12:50:39.033Z,26.91
2022-08-19T12:51:38.016Z,32.07
2022-08-19T12:52:38.033Z,32.87
2022-08-19T12:53:39.363Z,30.29
2022-08-19T12:54:38.029Z,29.33
2022-08-19T12:55:38.007Z,33.19
2022-08-19T12:56:38.009Z,32.87